sensor_id;sensor_type;location;lat;lon;timestamp;temperature;humidity
20590;DHT22;10453;50.810;12.540;2023-02-01T00:01:33;4.80;99.90
20590;DHT22;10453;50.810;12.540;2023-02-01T00:05:57;4.60;99.90
20590;DHT22;10453;50.810;12.540;2023-02-01T00:10:14;4.70;99.90
20590;DHT22;10453;50.810;12.540;2023-02-01T00:14:32;4.70;99.90
20590;DHT22;10453;50.810;12.540;2023-02-01T00:19:00;4.80;99.90
20590;DHT22;10453;50.810;12.540;2023-02-01T00:23:18;4.80;99.90
20590;DHT22;10453;50.810;12.540;2023-02-01T00:27:35;4.80;99.90
20590;DHT22;10453;50.810;12.540;2023-02-01T00:31:52;4.80;99.90
20590;DHT22;10453;50.810;12.540;2023-02-01T00:36:10;4.70;99.90
20590;DHT22;10453;50.810;12.540;2023-02-01T00:40:27;4.60;99.90
20590;DHT22;10453;50.810;12.540;2023-02-01T00:44:44;4.50;99.90
20590;DHT22;10453;50.810;12.540;2023-02-01T00:49:01;4.50;99.90
20590;DHT22;10453;50.810;12.540;2023-02-01T00:53:19;4.40;99.90
20590;DHT22;10453;50.810;12.540;2023-02-01T00:57:36;4.50;99.90
20590;DHT22;10453;50.810;12.540;2023-02-01T01:01:53;4.40;99.90
20590;DHT22;10453;50.810;12.540;2023-02-01T01:06:15;4.50;99.90
20590;DHT22;10453;50.810;12.540;2023-02-01T01:10:32;4.50;99.90
20590;DHT22;10453;50.810;12.540;2023-02-01T01:14:49;4.60;99.90
20590;DHT22;10453;50.810;12.540;2023-02-01T01:19:07;4.60;99.90
20590;DHT22;10453;50.810;12.540;2023-02-01T01:23:24;4.40;99.90
20590;DHT22;10453;50.810;12.540;2023-02-01T01:27:41;4.30;99.90
20590;DHT22;10453;50.810;12.540;2023-02-01T01:31:58;4.40;99.90
20590;DHT22;10453;50.810;12.540;2023-02-01T01:36:16;4.50;99.90
20590;DHT22;10453;50.810;12.540;2023-02-01T01:40:33;4.40;99.90
20590;DHT22;10453;50.810;12.540;2023-02-01T01:45:21;4.50;99.90
20590;DHT22;10453;50.810;12.540;2023-02-01T01:49:39;4.60;99.90
20590;DHT22;10453;50.810;12.540;2023-02-01T01:54:21;4.60;99.90
20590;DHT22;10453;50.810;12.540;2023-02-01T01:58:40;4.60;99.90
20590;DHT22;10453;50.810;12.540;2023-02-01T02:03:22;4.50;99.90
20590;DHT22;10453;50.810;12.540;2023-02-01T02:07:40;4.50;99.90
20590;DHT22;10453;50.810;12.540;2023-02-01T02:11:58;4.60;99.90
20590;DHT22;10453;50.810;12.540;2023-02-01T02:16:40;4.50;99.90
20590;DHT22;10453;50.810;12.540;2023-02-01T02:21:12;4.50;99.90
20590;DHT22;10453;50.810;12.540;2023-02-01T02:25:48;4.60;99.90
20590;DHT22;10453;50.810;12.540;2023-02-01T02:35:30;4.60;99.90
20590;DHT22;10453;50.810;12.540;2023-02-01T02:44:54;4.60;99.90
20590;DHT22;10453;50.810;12.540;2023-02-01T02:54:09;4.60;99.90
20590;DHT22;10453;50.810;12.540;2023-02-01T02:58:46;4.60;99.90
20590;DHT22;10453;50.810;12.540;2023-02-01T03:03:22;4.50;99.90
20590;DHT22;10453;50.810;12.540;2023-02-01T03:08:15;4.50;99.90
20590;DHT22;10453;50.810;12.540;2023-02-01T03:12:36;4.60;99.90
20590;DHT22;10453;50.810;12.540;2023-02-01T03:17:17;4.60;99.90
20590;DHT22;10453;50.810;12.540;2023-02-01T03:21:41;4.50;99.90
20590;DHT22;10453;50.810;12.540;2023-02-01T03:26:01;4.50;99.90
20590;DHT22;10453;50.810;12.540;2023-02-01T03:30:27;4.40;99.90
20590;DHT22;10453;50.810;12.540;2023-02-01T03:34:46;4.50;99.90
20590;DHT22;10453;50.810;12.540;2023-02-01T03:43:56;4.50;99.90
20590;DHT22;10453;50.810;12.540;2023-02-01T03:48:16;4.50;99.90
20590;DHT22;10453;50.810;12.540;2023-02-01T03:52:43;4.40;99.90
20590;DHT22;10453;50.810;12.540;2023-02-01T03:57:06;4.40;99.90
20590;DHT22;10453;50.810;12.540;2023-02-01T04:01:26;4.40;99.90
20590;DHT22;10453;50.810;12.540;2023-02-01T04:05:44;4.50;99.90
20590;DHT22;10453;50.810;12.540;2023-02-01T04:10:01;4.50;99.90
20590;DHT22;10453;50.810;12.540;2023-02-01T04:14:20;4.40;99.90
20590;DHT22;10453;50.810;12.540;2023-02-01T04:18:37;4.30;99.90
20590;DHT22;10453;50.810;12.540;2023-02-01T04:22:54;4.40;99.90
20590;DHT22;10453;50.810;12.540;2023-02-01T04:27:12;4.30;99.90
20590;DHT22;10453;50.810;12.540;2023-02-01T04:31:29;4.30;99.90
20590;DHT22;10453;50.810;12.540;2023-02-01T04:35:47;4.20;99.90
20590;DHT22;10453;50.810;12.540;2023-02-01T04:40:04;4.30;99.90
20590;DHT22;10453;50.810;12.540;2023-02-01T04:44:22;4.30;99.90
20590;DHT22;10453;50.810;12.540;2023-02-01T04:48:39;4.30;99.90
20590;DHT22;10453;50.810;12.540;2023-02-01T04:52:56;4.30;99.90
20590;DHT22;10453;50.810;12.540;2023-02-01T04:57:13;4.40;99.90
20590;DHT22;10453;50.810;12.540;2023-02-01T05:01:32;4.40;99.90
20590;DHT22;10453;50.810;12.540;2023-02-01T05:05:49;4.40;99.90
20590;DHT22;10453;50.810;12.540;2023-02-01T05:10:07;4.30;99.90
20590;DHT22;10453;50.810;12.540;2023-02-01T05:14:24;4.30;99.90
20590;DHT22;10453;50.810;12.540;2023-02-01T05:18:42;4.30;99.90
20590;DHT22;10453;50.810;12.540;2023-02-01T05:22:59;4.30;99.90
20590;DHT22;10453;50.810;12.540;2023-02-01T05:27:16;4.30;99.90
20590;DHT22;10453;50.810;12.540;2023-02-01T05:31:33;4.30;99.90
20590;DHT22;10453;50.810;12.540;2023-02-01T05:35:51;4.20;99.90
20590;DHT22;10453;50.810;12.540;2023-02-01T05:40:09;4.20;99.90
20590;DHT22;10453;50.810;12.540;2023-02-01T05:44:26;4.20;99.90
20590;DHT22;10453;50.810;12.540;2023-02-01T05:48:43;4.10;99.90
20590;DHT22;10453;50.810;12.540;2023-02-01T05:53:00;4.10;99.90
20590;DHT22;10453;50.810;12.540;2023-02-01T05:57:17;4.10;99.90
20590;DHT22;10453;50.810;12.540;2023-02-01T06:01:34;4.10;99.90
20590;DHT22;10453;50.810;12.540;2023-02-01T06:05:52;4.00;99.90
20590;DHT22;10453;50.810;12.540;2023-02-01T06:10:09;3.90;99.90
20590;DHT22;10453;50.810;12.540;2023-02-01T06:14:27;3.90;99.90
20590;DHT22;10453;50.810;12.540;2023-02-01T06:18:44;3.60;99.90
20590;DHT22;10453;50.810;12.540;2023-02-01T06:23:01;3.50;99.90
20590;DHT22;10453;50.810;12.540;2023-02-01T06:27:18;3.50;99.90
20590;DHT22;10453;50.810;12.540;2023-02-01T06:31:35;3.60;99.90
20590;DHT22;10453;50.810;12.540;2023-02-01T06:36:00;3.70;99.90
20590;DHT22;10453;50.810;12.540;2023-02-01T06:40:17;3.70;99.90
20590;DHT22;10453;50.810;12.540;2023-02-01T06:44:34;3.70;99.90
20590;DHT22;10453;50.810;12.540;2023-02-01T06:48:51;3.80;99.90
20590;DHT22;10453;50.810;12.540;2023-02-01T06:53:09;3.80;99.90
20590;DHT22;10453;50.810;12.540;2023-02-01T06:57:26;3.70;99.90
20590;DHT22;10453;50.810;12.540;2023-02-01T07:01:47;3.80;99.90
20590;DHT22;10453;50.810;12.540;2023-02-01T07:06:04;3.80;99.90
20590;DHT22;10453;50.810;12.540;2023-02-01T07:10:22;4.00;99.90
20590;DHT22;10453;50.810;12.540;2023-02-01T07:14:39;4.00;99.90
20590;DHT22;10453;50.810;12.540;2023-02-01T07:18:56;4.00;99.90
20590;DHT22;10453;50.810;12.540;2023-02-01T07:23:13;4.10;99.90
20590;DHT22;10453;50.810;12.540;2023-02-01T07:27:30;4.20;99.90
20590;DHT22;10453;50.810;12.540;2023-02-01T07:31:50;4.20;99.90
20590;DHT22;10453;50.810;12.540;2023-02-01T07:36:11;4.20;99.90
20590;DHT22;10453;50.810;12.540;2023-02-01T07:40:28;4.40;99.90
20590;DHT22;10453;50.810;12.540;2023-02-01T07:44:47;4.40;99.90
20590;DHT22;10453;50.810;12.540;2023-02-01T07:49:04;4.70;99.90
20590;DHT22;10453;50.810;12.540;2023-02-01T07:53:21;4.70;99.90
20590;DHT22;10453;50.810;12.540;2023-02-01T07:57:38;4.80;99.90
20590;DHT22;10453;50.810;12.540;2023-02-01T08:01:56;4.90;99.90
20590;DHT22;10453;50.810;12.540;2023-02-01T08:06:13;4.80;99.90
20590;DHT22;10453;50.810;12.540;2023-02-01T08:10:30;4.90;99.90
20590;DHT22;10453;50.810;12.540;2023-02-01T08:14:47;4.90;99.90
20590;DHT22;10453;50.810;12.540;2023-02-01T08:19:05;5.10;99.90
20590;DHT22;10453;50.810;12.540;2023-02-01T08:23:22;5.10;99.90
20590;DHT22;10453;50.810;12.540;2023-02-01T08:27:40;5.10;99.90
20590;DHT22;10453;50.810;12.540;2023-02-01T08:31:57;5.10;99.90
20590;DHT22;10453;50.810;12.540;2023-02-01T08:36:14;5.00;99.90
20590;DHT22;10453;50.810;12.540;2023-02-01T08:40:31;4.80;99.90
20590;DHT22;10453;50.810;12.540;2023-02-01T08:44:48;4.70;99.90
20590;DHT22;10453;50.810;12.540;2023-02-01T08:49:05;4.50;99.90
20590;DHT22;10453;50.810;12.540;2023-02-01T08:53:23;4.30;99.90
20590;DHT22;10453;50.810;12.540;2023-02-01T08:57:40;4.30;99.90
20590;DHT22;10453;50.810;12.540;2023-02-01T09:01:57;4.30;99.90
20590;DHT22;10453;50.810;12.540;2023-02-01T09:06:15;4.50;99.90
20590;DHT22;10453;50.810;12.540;2023-02-01T09:10:34;4.80;99.90
20590;DHT22;10453;50.810;12.540;2023-02-01T09:14:52;5.00;99.90
20590;DHT22;10453;50.810;12.540;2023-02-01T09:19:09;5.20;99.90
20590;DHT22;10453;50.810;12.540;2023-02-01T09:23:43;5.20;99.90
20590;DHT22;10453;50.810;12.540;2023-02-01T09:28:00;5.20;99.90
20590;DHT22;10453;50.810;12.540;2023-02-01T09:32:18;5.20;99.90
20590;DHT22;10453;50.810;12.540;2023-02-01T09:36:35;5.20;99.90
20590;DHT22;10453;50.810;12.540;2023-02-01T09:40:53;5.20;99.90
20590;DHT22;10453;50.810;12.540;2023-02-01T09:45:22;5.50;99.90
20590;DHT22;10453;50.810;12.540;2023-02-01T09:49:52;5.60;99.90
20590;DHT22;10453;50.810;12.540;2023-02-01T09:54:18;5.60;99.90
20590;DHT22;10453;50.810;12.540;2023-02-01T09:58:52;5.50;99.90
20590;DHT22;10453;50.810;12.540;2023-02-01T10:03:13;5.30;99.90
20590;DHT22;10453;50.810;12.540;2023-02-01T10:07:43;5.20;99.90
20590;DHT22;10453;50.810;12.540;2023-02-01T10:12:32;5.30;99.90
20590;DHT22;10453;50.810;12.540;2023-02-01T10:17:12;5.40;99.90
20590;DHT22;10453;50.810;12.540;2023-02-01T10:22:10;5.40;99.90
20590;DHT22;10453;50.810;12.540;2023-02-01T10:26:38;5.60;99.90
20590;DHT22;10453;50.810;12.540;2023-02-01T10:30:58;5.70;99.90
20590;DHT22;10453;50.810;12.540;2023-02-01T10:35:22;5.90;99.90
20590;DHT22;10453;50.810;12.540;2023-02-01T10:39:40;6.00;99.90
20590;DHT22;10453;50.810;12.540;2023-02-01T10:43:58;6.00;99.90
20590;DHT22;10453;50.810;12.540;2023-02-01T10:48:17;5.90;99.90
20590;DHT22;10453;50.810;12.540;2023-02-01T10:52:41;5.90;99.90
20590;DHT22;10453;50.810;12.540;2023-02-01T10:56:59;5.70;99.90
20590;DHT22;10453;50.810;12.540;2023-02-01T11:01:20;5.70;99.90
20590;DHT22;10453;50.810;12.540;2023-02-01T11:05:45;5.80;99.90
20590;DHT22;10453;50.810;12.540;2023-02-01T11:10:03;5.80;99.90
20590;DHT22;10453;50.810;12.540;2023-02-01T11:18:41;6.00;99.90
20590;DHT22;10453;50.810;12.540;2023-02-01T11:22:58;6.10;99.90
20590;DHT22;10453;50.810;12.540;2023-02-01T11:27:20;6.10;99.90
20590;DHT22;10453;50.810;12.540;2023-02-01T11:31:45;6.10;99.90
20590;DHT22;10453;50.810;12.540;2023-02-01T11:36:15;6.10;99.90
20590;DHT22;10453;50.810;12.540;2023-02-01T11:40:37;6.20;99.90
20590;DHT22;10453;50.810;12.540;2023-02-01T11:45:23;6.30;99.90
20590;DHT22;10453;50.810;12.540;2023-02-01T11:49:40;6.20;99.90
20590;DHT22;10453;50.810;12.540;2023-02-01T11:59:26;6.20;99.90
20590;DHT22;10453;50.810;12.540;2023-02-01T12:08:48;6.30;99.90
20590;DHT22;10453;50.810;12.540;2023-02-01T12:22:54;6.30;99.90
20590;DHT22;10453;50.810;12.540;2023-02-01T12:27:29;6.40;99.90
20590;DHT22;10453;50.810;12.540;2023-02-01T12:32:01;6.50;99.90
20590;DHT22;10453;50.810;12.540;2023-02-01T12:45:52;6.60;99.90
20590;DHT22;10453;50.810;12.540;2023-02-01T12:54:43;6.60;99.90
20590;DHT22;10453;50.810;12.540;2023-02-01T12:59:05;6.60;99.90
20590;DHT22;10453;50.810;12.540;2023-02-01T13:08:17;6.60;99.90
20590;DHT22;10453;50.810;12.540;2023-02-01T13:12:43;6.60;99.90
20590;DHT22;10453;50.810;12.540;2023-02-01T13:17:09;6.50;99.90
20590;DHT22;10453;50.810;12.540;2023-02-01T13:21:32;6.50;99.90
20590;DHT22;10453;50.810;12.540;2023-02-01T13:25:52;6.40;99.90
20590;DHT22;10453;50.810;12.540;2023-02-01T13:35:14;6.30;99.90
20590;DHT22;10453;50.810;12.540;2023-02-01T13:39:56;6.20;99.90
20590;DHT22;10453;50.810;12.540;2023-02-01T13:44:52;6.20;99.90
20590;DHT22;10453;50.810;12.540;2023-02-01T13:49:02;6.10;99.90
20590;DHT22;10453;50.810;12.540;2023-02-01T13:53:26;6.10;99.90
20590;DHT22;10453;50.810;12.540;2023-02-01T13:57:44;6.10;99.90
20590;DHT22;10453;50.810;12.540;2023-02-01T14:06:56;6.10;99.90
20590;DHT22;10453;50.810;12.540;2023-02-01T14:11:31;6.10;99.90
20590;DHT22;10453;50.810;12.540;2023-02-01T14:20:41;6.00;99.90
20590;DHT22;10453;50.810;12.540;2023-02-01T14:25:00;6.00;99.90
20590;DHT22;10453;50.810;12.540;2023-02-01T14:29:37;6.00;99.90
20590;DHT22;10453;50.810;12.540;2023-02-01T14:33:59;5.90;99.90
20590;DHT22;10453;50.810;12.540;2023-02-01T14:38:20;5.90;99.90
20590;DHT22;10453;50.810;12.540;2023-02-01T14:42:43;5.90;99.90
20590;DHT22;10453;50.810;12.540;2023-02-01T14:47:29;5.80;99.90
20590;DHT22;10453;50.810;12.540;2023-02-01T14:51:48;5.80;99.90
20590;DHT22;10453;50.810;12.540;2023-02-01T15:00:29;5.90;99.90
20590;DHT22;10453;50.810;12.540;2023-02-01T15:04:53;5.90;99.90
20590;DHT22;10453;50.810;12.540;2023-02-01T15:09:35;5.90;99.90
20590;DHT22;10453;50.810;12.540;2023-02-01T15:13:54;5.90;99.90
20590;DHT22;10453;50.810;12.540;2023-02-01T15:18:16;5.90;99.90
20590;DHT22;10453;50.810;12.540;2023-02-01T15:22:35;5.90;99.90
20590;DHT22;10453;50.810;12.540;2023-02-01T15:26:54;6.00;99.90
20590;DHT22;10453;50.810;12.540;2023-02-01T15:31:11;5.90;99.90
20590;DHT22;10453;50.810;12.540;2023-02-01T15:44:37;5.90;99.90
20590;DHT22;10453;50.810;12.540;2023-02-01T15:48:57;5.90;99.90
20590;DHT22;10453;50.810;12.540;2023-02-01T15:53:19;5.90;99.90
20590;DHT22;10453;50.810;12.540;2023-02-01T15:57:40;5.90;99.90
20590;DHT22;10453;50.810;12.540;2023-02-01T16:01:57;5.80;99.90
20590;DHT22;10453;50.810;12.540;2023-02-01T16:10:40;5.80;99.90
20590;DHT22;10453;50.810;12.540;2023-02-01T16:14:58;5.80;99.90
20590;DHT22;10453;50.810;12.540;2023-02-01T16:19:15;5.80;99.90
20590;DHT22;10453;50.810;12.540;2023-02-01T16:23:32;5.80;99.90
20590;DHT22;10453;50.810;12.540;2023-02-01T16:27:49;5.90;99.90
20590;DHT22;10453;50.810;12.540;2023-02-01T16:32:19;5.80;99.90
20590;DHT22;10453;50.810;12.540;2023-02-01T16:36:37;5.60;99.90
20590;DHT22;10453;50.810;12.540;2023-02-01T16:40:54;5.50;99.90
20590;DHT22;10453;50.810;12.540;2023-02-01T16:45:11;5.20;99.90
20590;DHT22;10453;50.810;12.540;2023-02-01T16:49:28;5.30;99.90
20590;DHT22;10453;50.810;12.540;2023-02-01T16:53:46;5.30;99.90
20590;DHT22;10453;50.810;12.540;2023-02-01T16:58:10;5.30;99.90
20590;DHT22;10453;50.810;12.540;2023-02-01T17:02:27;5.40;99.90
20590;DHT22;10453;50.810;12.540;2023-02-01T17:06:45;5.50;99.90
20590;DHT22;10453;50.810;12.540;2023-02-01T17:11:05;5.30;99.90
20590;DHT22;10453;50.810;12.540;2023-02-01T17:15:22;3.80;99.90
20590;DHT22;10453;50.810;12.540;2023-02-01T17:19:40;1.70;99.90
20590;DHT22;10453;50.810;12.540;2023-02-01T17:23:57;1.00;99.90
20590;DHT22;10453;50.810;12.540;2023-02-01T17:28:15;0.80;99.90
20590;DHT22;10453;50.810;12.540;2023-02-01T17:32:33;0.90;99.90
20590;DHT22;10453;50.810;12.540;2023-02-01T17:36:50;1.10;99.90
20590;DHT22;10453;50.810;12.540;2023-02-01T17:41:13;1.20;99.90
20590;DHT22;10453;50.810;12.540;2023-02-01T17:45:39;1.40;99.90
20590;DHT22;10453;50.810;12.540;2023-02-01T17:49:57;1.40;99.90
20590;DHT22;10453;50.810;12.540;2023-02-01T17:54:16;1.50;99.90
20590;DHT22;10453;50.810;12.540;2023-02-01T17:58:35;1.60;99.90
20590;DHT22;10453;50.810;12.540;2023-02-01T18:02:53;1.70;99.90
20590;DHT22;10453;50.810;12.540;2023-02-01T18:07:10;1.70;99.90
20590;DHT22;10453;50.810;12.540;2023-02-01T18:11:27;1.80;99.90
20590;DHT22;10453;50.810;12.540;2023-02-01T18:15:48;1.80;99.90
20590;DHT22;10453;50.810;12.540;2023-02-01T18:20:06;1.70;99.90
20590;DHT22;10453;50.810;12.540;2023-02-01T18:24:23;1.80;99.90
20590;DHT22;10453;50.810;12.540;2023-02-01T18:28:41;1.80;99.90
20590;DHT22;10453;50.810;12.540;2023-02-01T18:32:59;1.90;99.90
20590;DHT22;10453;50.810;12.540;2023-02-01T18:37:16;1.90;99.90
20590;DHT22;10453;50.810;12.540;2023-02-01T18:41:33;2.10;99.90
20590;DHT22;10453;50.810;12.540;2023-02-01T18:45:50;2.10;99.90
20590;DHT22;10453;50.810;12.540;2023-02-01T18:50:08;2.20;99.90
20590;DHT22;10453;50.810;12.540;2023-02-01T18:54:26;2.30;99.90
20590;DHT22;10453;50.810;12.540;2023-02-01T18:58:44;2.30;99.90
20590;DHT22;10453;50.810;12.540;2023-02-01T19:03:01;2.20;99.90
20590;DHT22;10453;50.810;12.540;2023-02-01T19:07:19;2.20;99.90
20590;DHT22;10453;50.810;12.540;2023-02-01T19:11:36;2.10;99.90
20590;DHT22;10453;50.810;12.540;2023-02-01T19:15:53;2.10;99.90
20590;DHT22;10453;50.810;12.540;2023-02-01T19:20:12;2.10;99.90
20590;DHT22;10453;50.810;12.540;2023-02-01T19:24:30;2.20;99.90
20590;DHT22;10453;50.810;12.540;2023-02-01T19:28:47;2.30;99.90
20590;DHT22;10453;50.810;12.540;2023-02-01T19:33:05;2.30;99.90
20590;DHT22;10453;50.810;12.540;2023-02-01T19:37:22;2.30;99.90
20590;DHT22;10453;50.810;12.540;2023-02-01T19:41:39;2.30;99.90
20590;DHT22;10453;50.810;12.540;2023-02-01T19:45:56;2.30;99.90
20590;DHT22;10453;50.810;12.540;2023-02-01T19:50:19;2.40;99.90
20590;DHT22;10453;50.810;12.540;2023-02-01T19:54:36;2.50;99.90
20590;DHT22;10453;50.810;12.540;2023-02-01T19:58:53;2.60;99.90
20590;DHT22;10453;50.810;12.540;2023-02-01T20:03:11;2.50;99.90
20590;DHT22;10453;50.810;12.540;2023-02-01T20:07:28;2.50;99.90
20590;DHT22;10453;50.810;12.540;2023-02-01T20:11:45;2.60;99.90
20590;DHT22;10453;50.810;12.540;2023-02-01T20:16:02;2.50;99.90
20590;DHT22;10453;50.810;12.540;2023-02-01T20:20:19;2.70;99.90
20590;DHT22;10453;50.810;12.540;2023-02-01T20:24:37;2.60;99.90
20590;DHT22;10453;50.810;12.540;2023-02-01T20:28:55;2.50;99.90
20590;DHT22;10453;50.810;12.540;2023-02-01T20:33:12;2.60;99.90
20590;DHT22;10453;50.810;12.540;2023-02-01T20:37:29;2.60;99.90
20590;DHT22;10453;50.810;12.540;2023-02-01T20:41:46;2.60;99.90
20590;DHT22;10453;50.810;12.540;2023-02-01T20:46:04;2.60;99.90
20590;DHT22;10453;50.810;12.540;2023-02-01T20:50:21;2.60;99.90
20590;DHT22;10453;50.810;12.540;2023-02-01T20:54:38;2.60;99.90
20590;DHT22;10453;50.810;12.540;2023-02-01T20:58:55;2.80;99.90
20590;DHT22;10453;50.810;12.540;2023-02-01T21:03:18;2.70;99.90
20590;DHT22;10453;50.810;12.540;2023-02-01T21:07:36;2.80;99.90
20590;DHT22;10453;50.810;12.540;2023-02-01T21:11:54;2.90;99.90
20590;DHT22;10453;50.810;12.540;2023-02-01T21:16:12;2.90;99.90
20590;DHT22;10453;50.810;12.540;2023-02-01T21:20:30;2.90;99.90
20590;DHT22;10453;50.810;12.540;2023-02-01T21:24:47;3.00;99.90
20590;DHT22;10453;50.810;12.540;2023-02-01T21:29:04;3.00;99.90
20590;DHT22;10453;50.810;12.540;2023-02-01T21:33:21;2.90;99.90
20590;DHT22;10453;50.810;12.540;2023-02-01T21:37:38;3.00;99.90
20590;DHT22;10453;50.810;12.540;2023-02-01T21:41:55;2.90;99.90
20590;DHT22;10453;50.810;12.540;2023-02-01T21:46:32;2.70;99.90
20590;DHT22;10453;50.810;12.540;2023-02-01T21:50:49;2.70;99.90
20590;DHT22;10453;50.810;12.540;2023-02-01T21:55:07;2.70;99.90
20590;DHT22;10453;50.810;12.540;2023-02-01T21:59:24;2.70;99.90
20590;DHT22;10453;50.810;12.540;2023-02-01T22:03:41;2.60;99.90
20590;DHT22;10453;50.810;12.540;2023-02-01T22:07:59;2.50;99.90
20590;DHT22;10453;50.810;12.540;2023-02-01T22:12:16;2.60;99.90
20590;DHT22;10453;50.810;12.540;2023-02-01T22:16:34;2.60;99.90
20590;DHT22;10453;50.810;12.540;2023-02-01T22:20:57;2.50;99.90
20590;DHT22;10453;50.810;12.540;2023-02-01T22:25:14;2.70;99.90
20590;DHT22;10453;50.810;12.540;2023-02-01T22:29:32;2.80;99.90
20590;DHT22;10453;50.810;12.540;2023-02-01T22:33:50;2.80;99.90
20590;DHT22;10453;50.810;12.540;2023-02-01T22:38:07;2.90;99.90
20590;DHT22;10453;50.810;12.540;2023-02-01T22:42:24;2.90;99.90
20590;DHT22;10453;50.810;12.540;2023-02-01T22:46:42;2.80;99.90
20590;DHT22;10453;50.810;12.540;2023-02-01T22:51:00;2.70;99.90
20590;DHT22;10453;50.810;12.540;2023-02-01T22:55:17;2.60;99.90
20590;DHT22;10453;50.810;12.540;2023-02-01T22:59:34;2.80;99.90
20590;DHT22;10453;50.810;12.540;2023-02-01T23:03:56;2.60;99.90
20590;DHT22;10453;50.810;12.540;2023-02-01T23:08:13;2.60;99.90
20590;DHT22;10453;50.810;12.540;2023-02-01T23:12:31;2.70;99.90
20590;DHT22;10453;50.810;12.540;2023-02-01T23:16:48;2.70;99.90
20590;DHT22;10453;50.810;12.540;2023-02-01T23:21:08;2.70;99.90
20590;DHT22;10453;50.810;12.540;2023-02-01T23:25:26;2.70;99.90
20590;DHT22;10453;50.810;12.540;2023-02-01T23:29:43;2.70;99.90
20590;DHT22;10453;50.810;12.540;2023-02-01T23:34:01;2.60;99.90
20590;DHT22;10453;50.810;12.540;2023-02-01T23:38:18;2.60;99.90
20590;DHT22;10453;50.810;12.540;2023-02-01T23:42:35;2.50;99.90
20590;DHT22;10453;50.810;12.540;2023-02-01T23:46:52;2.50;99.90
20590;DHT22;10453;50.810;12.540;2023-02-01T23:51:11;2.50;99.90
20590;DHT22;10453;50.810;12.540;2023-02-01T23:55:28;2.50;99.90
20590;DHT22;10453;50.810;12.540;2023-02-01T23:59:45;2.70;99.90
